Time;durP1;ratioP1;P1;durP2;ratioP2;P2;SDS_P1;SDS_P2;PMS_P1;PMS_P2;Temp;Humidity;BMP_temperature;BMP_pressure;BME280_temperature;BME280_humidity;BME280_pressure;Samples;Min_cycle;Max_cycle;Signal;HPM_P1;HPM_P2
2023/10/07 00:01:31;;;;;;;4.40;2.40;;;;;;;12.55;73.12;96975.34;108883;1271;24211;-78
2023/10/07 00:04:09;;;;;;;5.00;2.20;;;;;;;12.51;73.09;96967.96;108880;1271;22564;-78
2023/10/07 00:06:46;;;;;;;6.10;2.60;;;;;;;12.47;73.07;96967.20;108886;1267;22486;-78
2023/10/07 00:09:35;;;;;;;3.70;2.20;;;;;;;12.47;73.05;96958.38;108913;1272;22508;-78
2023/10/07 00:12:12;;;;;;;4.60;2.40;;;;;;;12.47;73.03;96959.50;108898;1272;24091;-77
2023/10/07 00:14:44;;;;;;;4.70;2.50;;;;;;;12.46;73.01;96950.48;108755;1272;85927;-78
2023/10/07 00:17:25;;;;;;;4.60;2.60;;;;;;;12.44;73.01;96947.25;108831;1272;22510;-78
2023/10/07 00:19:59;;;;;;;6.00;2.50;;;;;;;12.42;72.91;96939.66;108801;1272;22526;-78
2023/10/07 00:22:40;;;;;;;4.10;2.30;;;;;;;12.39;72.93;96937.94;108758;1265;22569;-78
2023/10/07 00:25:15;;;;;;;4.10;2.20;;;;;;;12.38;72.86;96937.94;108772;1272;70131;-79
2023/10/07 00:27:50;;;;;;;4.40;3.00;;;;;;;12.38;72.79;96941.71;108939;1272;22514;-78
2023/10/07 00:30:27;;;;;;;4.30;2.80;;;;;;;12.38;72.76;96934.11;108949;1271;25407;-78
2023/10/07 00:32:58;;;;;;;3.50;2.30;;;;;;;12.35;72.71;96930.46;108908;1268;22530;-79
2023/10/07 00:35:33;;;;;;;3.80;2.10;;;;;;;12.32;72.62;96931.41;104771;1265;5497014;-79
2023/10/07 00:38:05;;;;;;;5.60;2.30;;;;;;;12.33;72.55;96923.64;108968;1271;22522;-79
2023/10/07 00:40:45;;;;;;;6.50;2.60;;;;;;;12.33;72.41;96923.95;108947;1266;22507;-79
2023/10/07 00:43:30;;;;;;;5.90;2.60;;;;;;;12.32;72.37;96916.46;109188;1272;22517;-78
2023/10/07 00:46:10;;;;;;;4.80;2.50;;;;;;;12.33;72.17;96906.31;108836;1262;46518;-79
2023/10/07 00:48:48;;;;;;;4.30;2.20;;;;;;;12.34;72.05;96908.27;108897;1272;22514;-78
2023/10/07 00:51:33;;;;;;;4.70;2.50;;;;;;;12.35;72.04;96900.44;108886;1271;22533;-78
2023/10/07 00:54:18;;;;;;;4.60;2.40;;;;;;;12.34;71.90;96894.85;108929;1251;22507;-80
2023/10/07 00:57:08;;;;;;;9.10;2.70;;;;;;;12.33;71.78;96891.42;108862;1271;25271;-79
2023/10/07 00:59:51;;;;;;;7.80;2.70;;;;;;;12.29;71.72;96890.14;108907;1272;26542;-78
2023/10/07 01:02:38;;;;;;;5.60;2.30;;;;;;;12.28;71.57;96873.92;108925;1271;22507;-80
2023/10/07 01:05:24;;;;;;;6.30;2.60;;;;;;;12.31;71.50;96867.15;108841;1270;40098;-79
2023/10/07 01:07:58;;;;;;;4.80;2.50;;;;;;;12.32;71.30;96866.23;108886;1271;22504;-79
2023/10/07 01:10:31;;;;;;;5.30;2.30;;;;;;;12.33;71.14;96859.40;108887;1269;22521;-78
2023/10/07 01:13:23;;;;;;;5.50;2.50;;;;;;;12.33;70.97;96853.98;108853;1269;22551;-79
2023/10/07 01:15:55;;;;;;;4.10;2.30;;;;;;;12.32;70.86;96852.34;108735;1272;50088;-77
2023/10/07 01:18:27;;;;;;;4.70;2.30;;;;;;;12.31;70.76;96852.45;108756;1268;22512;-78
2023/10/07 01:21:11;;;;;;;6.70;2.60;;;;;;;12.34;70.63;96853.81;108772;1273;22510;-79
2023/10/07 01:23:44;;;;;;;6.30;3.00;;;;;;;12.35;70.45;96848.70;108765;1268;22546;-78
2023/10/07 01:26:23;;;;;;;5.60;2.40;;;;;;;12.37;70.38;96847.17;108783;1266;37350;-80
2023/10/07 01:29:12;;;;;;;6.20;2.60;;;;;;;12.35;70.13;96839.29;108950;1267;22983;-78
2023/10/07 01:32:00;;;;;;;6.30;2.90;;;;;;;12.38;69.98;96844.23;108879;1272;23804;-79
2023/10/07 01:34:35;;;;;;;5.70;2.50;;;;;;;12.38;69.91;96845.95;108807;1272;45985;-79
2023/10/07 01:37:11;;;;;;;6.20;2.70;;;;;;;12.38;69.77;96845.67;108926;1271;22583;-78
2023/10/07 01:39:49;;;;;;;6.30;3.10;;;;;;;12.39;69.69;96846.84;108906;1269;22623;-78
2023/10/07 01:42:35;;;;;;;6.00;2.80;;;;;;;12.36;69.62;96840.06;108886;1271;22504;-79
2023/10/07 01:45:19;;;;;;;;;;;;;;;12.33;69.53;96834.41;107141;1266;2283712;-78
2023/10/07 01:48:07;;;;;;;6.60;3.00;;;;;;;12.35;69.51;96839.60;108869;1266;22514;-79
2023/10/07 01:50:46;;;;;;;8.00;3.20;;;;;;;12.35;69.38;96833.42;108909;1269;22593;-79
2023/10/07 01:53:20;;;;;;;7.30;2.90;;;;;;;12.36;69.31;96823.58;108882;1265;24217;-78
2023/10/07 01:55:56;;;;;;;7.70;3.30;;;;;;;12.36;69.28;96822.35;106840;1265;2597214;-79
2023/10/07 01:58:30;;;;;;;6.40;2.50;;;;;;;12.37;69.17;96822.98;108814;1273;24220;-78
2023/10/07 02:01:06;;;;;;;6.50;2.60;;;;;;;12.36;69.11;96818.90;108749;1265;22494;-77
2023/10/07 02:03:39;;;;;;;7.40;2.80;;;;;;;12.35;69.09;96823.27;108730;1273;24541;-77
2023/10/07 02:06:18;;;;;;;6.10;2.80;;;;;;;12.37;69.05;96819.73;107313;1263;2025860;-79
2023/10/07 02:08:53;;;;;;;6.40;3.30;;;;;;;12.38;69.09;96818.98;108900;1272;22613;-77
2023/10/07 02:11:30;;;;;;;6.60;3.70;;;;;;;12.42;69.03;96813.26;108856;1266;26554;-78
2023/10/07 02:14:02;;;;;;;8.30;3.20;;;;;;;12.49;68.96;96807.21;108863;1262;22568;-78
2023/10/07 02:16:36;;;;;;;8.40;2.80;;;;;;;12.63;68.78;96800.86;108842;1272;43191;-78
2023/10/07 02:19:14;;;;;;;8.10;3.40;;;;;;;12.83;68.39;96795.65;108868;1271;22632;-78
2023/10/07 02:21:51;;;;;;;6.40;2.70;;;;;;;13.07;67.80;96793.55;108896;1269;25401;-76
2023/10/07 02:24:23;;;;;;;7.30;3.20;;;;;;;13.34;66.33;96796.58;108887;1271;22525;-78
2023/10/07 02:27:00;;;;;;;6.30;3.10;;;;;;;13.54;65.78;96793.52;108746;1271;49797;-78
2023/10/07 02:29:34;;;;;;;8.30;3.30;;;;;;;13.60;65.05;96775.04;108794;1270;22593;-79
2023/10/07 02:32:13;;;;;;;6.60;2.70;;;;;;;13.73;64.51;96795.77;108790;1271;24228;-79
2023/10/07 02:34:52;;;;;;;7.90;3.10;;;;;;;13.77;63.97;96783.46;108720;1264;70536;-79
2023/10/07 02:37:30;;;;;;;6.30;3.00;;;;;;;13.78;64.26;96784.89;108887;1272;22594;-78
2023/10/07 02:40:19;;;;;;;6.30;3.10;;;;;;;13.72;64.31;96772.49;109186;1271;22515;-79
2023/10/07 02:42:57;;;;;;;7.20;3.20;;;;;;;13.69;64.30;96773.66;108847;1269;22507;-79
2023/10/07 02:45:48;;;;;;;7.30;3.40;;;;;;;13.68;64.35;96767.77;108794;1269;43780;-79
2023/10/07 02:48:22;;;;;;;7.90;3.40;;;;;;;13.66;64.31;96767.05;108714;1273;22557;-78
2023/10/07 02:50:54;;;;;;;7.40;3.40;;;;;;;13.67;64.16;96758.73;108740;1273;25229;-78
2023/10/07 02:53:35;;;;;;;7.00;3.00;;;;;;;13.71;64.31;96755.09;108797;1273;22503;-78
2023/10/07 02:56:17;;;;;;;6.90;3.50;;;;;;;13.73;64.30;96760.54;108674;1269;72457;-78
2023/10/07 02:59:00;;;;;;;7.10;3.80;;;;;;;13.74;64.34;96754.86;108708;1271;22641;-79
2023/10/07 03:01:32;;;;;;;6.30;3.20;;;;;;;13.75;64.17;96748.08;108760;1271;22582;-79
2023/10/07 03:04:11;;;;;;;9.60;3.80;;;;;;;13.76;64.25;96748.52;108745;1274;24041;-79
2023/10/07 03:06:46;;;;;;;9.00;3.70;;;;;;;13.74;64.32;96749.11;108819;1258;34108;-77
2023/10/07 03:09:19;;;;;;;7.80;3.90;;;;;;;13.71;64.50;96743.15;109147;1269;25230;-78
2023/10/07 03:11:52;;;;;;;7.70;3.30;;;;;;;13.64;64.82;96740.19;108904;1266;22564;-79
2023/10/07 03:14:27;;;;;;;8.10;3.60;;;;;;;13.63;64.87;96744.61;108867;1272;22518;-77
2023/10/07 03:17:00;;;;;;;8.40;3.10;;;;;;;13.61;65.16;96746.09;108746;1269;54445;-78
2023/10/07 03:19:48;;;;;;;7.20;3.40;;;;;;;13.56;65.24;96741.33;108815;1270;23749;-79
2023/10/07 03:22:26;;;;;;;6.50;3.40;;;;;;;13.48;65.52;96743.44;108789;1273;22565;-78
2023/10/07 03:25:00;;;;;;;7.60;3.50;;;;;;;13.43;65.74;96744.50;107369;1272;1863892;-78
2023/10/07 03:27:39;;;;;;;7.30;4.00;;;;;;;13.37;65.95;96739.58;108892;1272;22534;-78
2023/10/07 03:30:27;;;;;;;9.00;3.70;;;;;;;13.32;66.15;96733.06;108896;1271;22568;-77
2023/10/07 03:33:07;;;;;;;5.80;3.40;;;;;;;13.28;66.49;96734.94;108907;1262;23656;-78
2023/10/07 03:38:55;;;;;;;5.80;3.20;;;;;;;13.23;66.79;96734.86;105323;1304;544947;-78
2023/10/07 03:41:33;;;;;;;6.30;3.30;;;;;;;13.21;66.97;96734.78;107942;1278;22746;-78
2023/10/07 03:44:07;;;;;;;9.80;3.80;;;;;;;13.20;67.15;96732.15;108454;1268;22992;-78
2023/10/07 03:46:57;;;;;;;7.00;3.30;;;;;;;13.21;67.22;96732.54;106573;1278;2333589;-78
2023/10/07 03:49:33;;;;;;;8.00;3.50;;;;;;;13.22;67.22;96729.98;108278;1278;22521;-78
2023/10/07 03:52:07;;;;;;;7.40;3.60;;;;;;;13.24;67.33;96735.66;108229;1277;201862;-78
2023/10/07 04:05:14;;;;;;;6.70;3.60;;;;;;;13.35;67.06;96728.74;108739;1272;56943;-78
2023/10/07 04:07:48;;;;;;;8.40;3.40;;;;;;;13.38;66.96;96716.20;108815;1273;22573;-78
2023/10/07 04:10:31;;;;;;;6.10;3.60;;;;;;;13.40;66.99;96715.47;108813;1272;22614;-78
2023/10/07 04:13:07;;;;;;;6.50;3.60;;;;;;;13.39;66.90;96719.43;108790;1272;22523;-78
2023/10/07 04:15:51;;;;;;;7.40;3.50;;;;;;;13.41;66.81;96714.34;108788;1268;43414;-78
2023/10/07 04:18:35;;;;;;;8.00;3.40;;;;;;;13.42;66.71;96715.73;108770;1272;22537;-77
2023/10/07 04:21:06;;;;;;;7.90;3.20;;;;;;;13.40;66.65;96712.21;108844;1272;23770;-78
2023/10/07 04:23:43;;;;;;;7.80;3.20;;;;;;;13.41;66.53;96713.11;108838;1269;25246;-78
2023/10/07 04:26:25;;;;;;;7.60;3.20;;;;;;;13.40;66.54;96710.08;108806;1272;35925;-78
2023/10/07 04:28:59;;;;;;;10.20;3.40;;;;;;;13.41;66.56;96708.11;108890;1272;24299;-78
2023/10/07 04:31:37;;;;;;;7.10;3.40;;;;;;;13.38;66.50;96706.30;108823;1272;22522;-77
2023/10/07 04:34:15;;;;;;;7.70;3.60;;;;;;;13.39;66.30;96704.99;108770;1272;22530;-78
2023/10/07 04:39:38;;;;;;;6.70;3.40;;;;;;;13.54;65.85;96706.53;108789;1270;22553;-78
2023/10/07 04:42:20;;;;;;;5.60;3.00;;;;;;;13.56;65.78;96701.02;108815;1267;23855;-78
2023/10/07 04:45:17;;;;;;;7.10;3.60;;;;;;;13.55;65.73;96697.73;108762;1270;57346;-78
2023/10/07 04:47:57;;;;;;;9.80;4.30;;;;;;;13.53;65.68;96702.04;108908;1256;22511;-78
2023/10/07 04:50:35;;;;;;;6.30;3.40;;;;;;;13.49;65.73;96712.09;108758;1270;24426;-78
2023/10/07 04:53:08;;;;;;;8.70;3.70;;;;;;;13.48;65.77;96716.17;108776;1270;22512;-78
2023/10/07 04:55:47;;;;;;;8.20;3.90;;;;;;;13.44;65.75;96714.23;108709;1271;71066;-78
2023/10/07 04:58:24;;;;;;;7.50;3.70;;;;;;;13.45;65.77;96723.16;108751;1274;23202;-78
2023/10/07 05:01:04;;;;;;;8.50;4.00;;;;;;;13.46;65.71;96732.52;108740;1274;22537;-78
2023/10/07 05:03:38;;;;;;;6.10;3.30;;;;;;;13.46;65.63;96740.34;108755;1274;22571;-77
2023/10/07 05:06:11;;;;;;;8.40;3.80;;;;;;;13.51;65.46;96740.73;108705;1273;93629;-77
2023/10/07 05:08:45;;;;;;;8.20;3.50;;;;;;;13.56;65.31;96736.32;108806;1259;22518;-77
2023/10/07 05:11:17;;;;;;;8.50;3.60;;;;;;;13.60;65.18;96731.88;108755;1272;25435;-78
2023/10/07 05:13:55;;;;;;;6.80;4.00;;;;;;;13.62;64.92;96731.16;108796;1271;24017;-78
2023/10/07 05:16:31;;;;;;;6.50;3.50;;;;;;;13.66;64.44;96722.19;107198;1254;1998665;-77
2023/10/07 05:19:03;;;;;;;7.50;3.60;;;;;;;13.77;63.96;96722.86;108816;1273;22521;-77
2023/10/07 05:21:44;;;;;;;7.30;3.80;;;;;;;13.84;63.55;96719.77;108768;1267;24380;-78
2023/10/07 05:24:19;;;;;;;7.60;3.30;;;;;;;13.85;63.54;96720.66;108765;1274;22517;-78
2023/10/07 05:26:55;;;;;;;9.20;3.70;;;;;;;13.87;63.01;96721.90;104859;1274;5206778;-76
2023/10/07 05:29:27;;;;;;;7.70;3.40;;;;;;;13.91;62.60;96726.39;108796;1274;24084;-78
2023/10/07 05:32:00;;;;;;;8.40;3.60;;;;;;;13.94;62.55;96718.24;108754;1267;25418;-77
2023/10/07 05:34:33;;;;;;;8.80;4.50;;;;;;;13.96;62.28;96722.90;108787;1267;22517;-77
2023/10/07 05:37:11;;;;;;;6.40;3.60;;;;;;;13.96;62.50;96726.46;108724;1267;42052;-78
2023/10/07 05:39:52;;;;;;;6.30;3.30;;;;;;;13.95;62.27;96727.30;108756;1267;22515;-77
2023/10/07 05:42:27;;;;;;;7.40;3.30;;;;;;;13.99;62.03;96731.16;108734;1274;22527;-78
2023/10/07 05:44:59;;;;;;;8.40;3.70;;;;;;;14.02;61.92;96735.52;108767;1271;22531;-78
2023/10/07 05:47:32;;;;;;;8.00;4.10;;;;;;;14.06;61.36;96724.83;108782;1274;26591;-78
2023/10/07 05:50:05;;;;;;;7.00;3.50;;;;;;;14.10;61.23;96723.11;108752;1273;26918;-78
2023/10/07 05:52:37;;;;;;;7.20;3.50;;;;;;;14.11;61.07;96726.38;108790;1270;22531;-77
2023/10/07 05:55:14;;;;;;;8.30;3.80;;;;;;;14.16;60.99;96735.77;108729;1273;60672;-79
2023/10/07 05:58:01;;;;;;;8.70;3.30;;;;;;;14.20;60.64;96731.20;108758;1274;22508;-78
2023/10/07 06:00:33;;;;;;;5.90;3.20;;;;;;;14.27;60.34;96732.09;108753;1270;22941;-77
2023/10/07 06:03:12;;;;;;;9.50;4.00;;;;;;;14.32;60.47;96743.55;108792;1267;22514;-78
2023/10/07 06:05:53;;;;;;;10.10;4.60;;;;;;;14.33;60.14;96750.02;108670;1271;66745;-78
2023/10/07 06:08:32;;;;;;;7.40;3.60;;;;;;;14.36;59.97;96765.52;108777;1270;22661;-78
2023/10/07 06:11:10;;;;;;;8.50;3.90;;;;;;;14.36;60.04;96761.67;108752;1270;24395;-77
2023/10/07 06:13:44;;;;;;;7.30;3.80;;;;;;;14.33;59.96;96755.81;108752;1274;22649;-77
2023/10/07 06:16:18;;;;;;;9.00;3.80;;;;;;;14.37;60.16;96762.20;108654;1270;81562;-77
2023/10/07 06:18:58;;;;;;;10.70;5.30;;;;;;;14.37;60.29;96761.83;108811;1267;22553;-77
2023/10/07 06:21:33;;;;;;;11.50;7.10;;;;;;;14.37;60.04;96758.33;108782;1274;22507;-78
2023/10/07 06:24:06;;;;;;;12.50;6.40;;;;;;;14.40;60.08;96758.42;108801;1274;23824;-78
2023/10/07 06:26:43;;;;;;;8.50;4.70;;;;;;;14.42;60.12;96761.92;108731;1270;48524;-78
2023/10/07 06:29:21;;;;;;;8.40;5.00;;;;;;;14.41;60.21;96761.45;108772;1270;23940;-77
2023/10/07 06:32:13;;;;;;;8.70;4.30;;;;;;;14.41;60.22;96752.28;108776;1274;23853;-77
2023/10/07 06:34:45;;;;;;;9.50;4.30;;;;;;;14.41;60.10;96748.96;108729;1270;24097;-77
2023/10/07 06:37:28;;;;;;;9.70;5.40;;;;;;;14.43;60.07;96755.23;108730;1267;47693;-77
2023/10/07 06:40:21;;;;;;;11.50;4.50;;;;;;;14.44;60.15;96759.11;108785;1270;26003;-77
2023/10/07 06:42:56;;;;;;;7.80;4.30;;;;;;;14.45;60.22;96758.46;108785;1274;25490;-77
2023/10/07 06:45:44;;;;;;;9.00;4.50;;;;;;;14.44;60.20;96759.27;108665;1267;64663;-77
2023/10/07 06:48:23;;;;;;;8.10;4.00;;;;;;;14.47;59.90;96764.85;108763;1274;25432;-78
2023/10/07 06:50:59;;;;;;;8.60;4.10;;;;;;;14.50;60.13;96760.71;108713;1270;22516;-78
2023/10/07 06:53:37;;;;;;;10.20;4.70;;;;;;;14.51;60.24;96758.77;108767;1273;23890;-78
2023/10/07 06:56:22;;;;;;;10.50;4.40;;;;;;;14.53;60.08;96761.70;108715;1267;67197;-78
2023/10/07 06:58:59;;;;;;;7.10;3.60;;;;;;;14.55;60.20;96763.59;108751;1262;22557;-78
2023/10/07 07:01:51;;;;;;;8.90;4.30;;;;;;;14.55;60.40;96760.27;108779;1267;22532;-77
2023/10/07 07:04:27;;;;;;;7.70;4.10;;;;;;;14.59;60.40;96764.63;108790;1274;22518;-78
2023/10/07 07:07:16;;;;;;;9.10;4.50;;;;;;;14.61;60.54;96756.52;107422;1270;1795854;-78
2023/10/07 07:09:58;;;;;;;8.30;3.90;;;;;;;14.66;60.61;96752.30;108789;1274;22526;-78
2023/10/07 07:12:32;;;;;;;8.50;4.30;;;;;;;14.73;60.87;96753.33;108771;1274;22575;-78
2023/10/07 07:15:06;;;;;;;7.50;3.90;;;;;;;14.72;60.89;96754.83;108716;1264;71300;-78
2023/10/07 07:17:43;;;;;;;9.40;4.10;;;;;;;14.69;61.12;96772.98;108789;1267;24328;-78
2023/10/07 07:20:48;;;;;;;7.10;4.00;;;;;;;14.67;61.19;96769.68;108752;1273;22551;-78
2023/10/07 07:23:34;;;;;;;9.90;4.30;;;;;;;14.68;61.65;96772.29;108775;1270;26447;-78
2023/10/07 07:26:11;;;;;;;9.50;5.00;;;;;;;14.67;61.80;96777.80;108688;1267;105559;-78
2023/10/07 07:28:47;;;;;;;9.70;4.50;;;;;;;14.68;61.89;96781.36;108756;1274;22534;-78
2023/10/07 07:31:26;;;;;;;9.20;4.80;;;;;;;14.68;62.06;96782.58;108755;1274;22756;-78
2023/10/07 07:34:19;;;;;;;8.20;4.40;;;;;;;14.68;62.29;96784.27;108713;1273;22507;-78
2023/10/07 07:37:02;;;;;;;7.70;4.50;;;;;;;14.71;62.47;96782.73;108656;1267;63280;-77
2023/10/07 07:39:36;;;;;;;8.30;4.60;;;;;;;14.72;62.70;96780.07;108760;1258;22548;-78
2023/10/07 07:42:21;;;;;;;8.60;4.20;;;;;;;14.71;62.75;96778.28;108741;1274;22586;-78
2023/10/07 07:44:57;;;;;;;;;;;;;;;14.71;62.82;96771.46;108754;1274;22498;-78
2023/10/07 07:47:31;;;;;;;8.30;4.00;;;;;;;14.68;63.34;96761.77;108814;1270;22591;-78
2023/10/07 07:50:18;;;;;;;7.60;4.10;;;;;;;14.76;63.33;96762.27;108785;1272;22542;-78
2023/10/07 07:52:55;;;;;;;8.70;4.50;;;;;;;14.78;63.22;96765.98;108753;1265;24170;-78
2023/10/07 07:55:29;;;;;;;8.40;4.40;;;;;;;14.79;63.16;96761.09;108710;1273;47191;-78
2023/10/07 07:58:03;;;;;;;8.40;4.60;;;;;;;14.82;63.39;96760.42;108785;1273;22519;-78
2023/10/07 08:00:40;;;;;;;7.60;4.30;;;;;;;14.89;63.41;96756.81;108842;1273;22516;-78
2023/10/07 08:03:13;;;;;;;8.90;4.80;;;;;;;14.92;63.43;96747.92;108825;1273;26141;-78
2023/10/07 08:05:47;;;;;;;10.90;4.60;;;;;;;14.95;63.46;96748.46;108742;1265;66791;-78
2023/10/07 08:08:24;;;;;;;9.10;4.10;;;;;;;14.98;63.55;96753.45;108771;1273;22522;-78
2023/10/07 08:11:00;;;;;;;9.30;4.60;;;;;;;15.02;63.70;96748.51;108763;1273;22519;-80
2023/10/07 08:13:38;;;;;;;8.00;4.20;;;;;;;15.02;63.82;96744.05;108790;1252;22579;-79
2023/10/07 08:19:40;;;;;;;10.20;4.40;;;;;;;15.04;64.42;96740.83;108251;1273;23377;-78
2023/10/07 08:22:19;;;;;;;9.20;4.50;;;;;;;15.13;64.39;96751.48;108802;1267;22511;-79
2023/10/07 08:25:00;;;;;;;8.10;4.60;;;;;;;15.10;64.33;96749.63;108768;1266;23895;-79
2023/10/07 08:30:42;;;;;;;8.20;4.50;;;;;;;15.13;64.56;96753.09;108661;1273;25394;-78
2023/10/07 08:33:24;;;;;;;10.00;4.60;;;;;;;15.14;64.77;96766.03;108799;1267;24215;-79
2023/10/07 08:35:56;;;;;;;9.70;4.40;;;;;;;15.18;65.07;96766.11;108777;1272;33663;-79
2023/10/07 08:38:38;;;;;;;7.80;4.20;;;;;;;15.25;65.36;96765.58;108772;1265;24075;-78
2023/10/07 08:41:26;;;;;;;7.80;3.40;;;;;;;15.36;65.64;96768.67;108753;1272;25347;-79
2023/10/07 08:44:13;;;;;;;8.50;4.30;;;;;;;15.56;65.93;96767.02;108774;1269;22651;-79
2023/10/07 08:49:33;;;;;;;6.60;3.60;;;;;;;15.80;65.88;96755.90;109075;1271;22526;-80
2023/10/07 08:52:16;;;;;;;;;;;;;;;15.87;65.85;96757.39;109038;1272;22506;-79
2023/10/07 08:54:53;;;;;;;8.80;3.40;;;;;;;15.97;65.98;96755.84;108821;1267;22534;-78
2023/10/07 08:57:34;;;;;;;6.70;3.80;;;;;;;16.05;65.67;96752.07;108719;1270;62263;-78
2023/10/07 09:00:21;;;;;;;7.60;4.00;;;;;;;16.08;65.70;96751.61;109075;1266;22646;-79
2023/10/07 09:02:55;;;;;;;7.60;3.40;;;;;;;16.13;65.79;96745.05;109076;1273;22520;-79
2023/10/07 09:05:30;;;;;;;6.50;3.60;;;;;;;16.15;65.83;96734.23;109008;1265;68954;-79
2023/10/07 09:08:08;;;;;;;7.00;3.50;;;;;;;16.24;65.89;96735.45;108828;1273;23795;-80
2023/10/07 09:10:55;;;;;;;8.60;4.10;;;;;;;16.24;65.77;96726.28;108797;1273;24219;-79
2023/10/07 09:13:39;;;;;;;6.70;3.50;;;;;;;16.23;66.01;96724.34;109090;1269;23841;-79
2023/10/07 09:16:26;;;;;;;7.90;4.40;;;;;;;16.28;66.18;96722.84;105178;1269;5106412;-81
2023/10/07 09:19:19;;;;;;;8.00;3.90;;;;;;;16.43;66.27;96717.63;108803;1271;22813;-79
2023/10/07 09:22:10;;;;;;;7.80;3.50;;;;;;;16.44;66.00;96724.33;108817;1267;22558;-80
2023/10/07 09:24:54;;;;;;;8.30;3.90;;;;;;;16.41;65.93;96725.34;109096;1272;23480;-79
2023/10/07 09:27:38;;;;;;;9.00;4.00;;;;;;;16.37;65.98;96721.09;108741;1269;63237;-80
2023/10/07 09:33:13;;;;;;;7.20;3.40;;;;;;;16.26;66.17;96716.77;109074;1273;22546;-79
2023/10/07 09:36:22;;;;;;;8.80;4.20;;;;;;;16.22;66.21;96712.45;108897;1255;73795;-79
2023/10/07 09:39:16;;;;;;;7.90;3.80;;;;;;;16.17;66.36;96708.13;109110;1267;24212;-79
2023/10/07 09:42:03;;;;;;;8.70;3.80;;;;;;;16.32;66.89;96709.16;108810;1267;22537;-79
2023/10/07 09:44:53;;;;;;;8.60;4.00;;;;;;;16.44;66.52;96718.20;109028;1262;22518;-79
2023/10/07 09:47:29;;;;;;;6.70;3.70;;;;;;;16.70;66.77;96712.73;108741;1267;69766;-80
2023/10/07 09:50:19;;;;;;;7.10;3.90;;;;;;;17.02;66.58;96717.68;109147;1271;22533;-79
2023/10/07 09:53:14;;;;;;;7.90;3.60;;;;;;;17.26;66.11;96724.05;108783;1272;23027;-80
2023/10/07 09:56:11;;;;;;;8.00;3.40;;;;;;;17.37;65.77;96726.96;109007;1267;74678;-79
2023/10/07 09:59:07;;;;;;;7.80;3.70;;;;;;;17.59;65.62;96705.93;109025;1270;22530;-79
2023/10/07 10:02:05;;;;;;;7.00;3.80;;;;;;;17.79;64.98;96696.90;109092;1272;22550;-79
2023/10/07 10:05:05;;;;;;;6.60;3.40;;;;;;;17.86;64.81;96690.71;109032;1271;22537;-79
2023/10/07 10:07:56;;;;;;;8.80;4.40;;;;;;;17.91;64.90;96693.81;108999;1268;66905;-80
2023/10/07 10:10:44;;;;;;;8.10;4.00;;;;;;;18.07;64.86;96686.48;109080;1270;25356;-80
2023/10/07 10:13:51;;;;;;;8.00;4.00;;;;;;;17.99;64.25;96686.96;109102;1273;23850;-81
2023/10/07 10:16:44;;;;;;;6.50;3.70;;;;;;;17.68;63.82;96677.22;109053;1266;39445;-80
2023/10/07 10:19:28;;;;;;;7.30;4.20;;;;;;;17.53;64.16;96676.27;109099;1272;22531;-81
2023/10/07 10:22:11;;;;;;;7.10;4.00;;;;;;;17.42;64.45;96670.29;109092;1273;22637;-79
2023/10/07 10:24:47;;;;;;;6.70;3.80;;;;;;;17.42;64.85;96670.29;108802;1272;26526;-79
2023/10/07 10:27:21;;;;;;;7.00;3.70;;;;;;;17.52;64.98;96672.25;108741;1266;74980;-80
2023/10/07 10:30:05;;;;;;;6.50;4.10;;;;;;;17.65;64.69;96666.97;108821;1267;22608;-81
2023/10/07 10:32:44;;;;;;;7.30;3.80;;;;;;;17.83;64.84;96667.31;109048;1272;23997;-80
2023/10/07 10:35:25;;;;;;;7.00;4.00;;;;;;;18.05;64.66;96663.64;109114;1272;22543;-80
2023/10/07 10:38:09;;;;;;;6.10;3.40;;;;;;;18.28;64.78;96662.98;109053;1266;23168;-79
2023/10/07 10:40:48;;;;;;;5.60;3.30;;;;;;;18.39;64.07;96656.73;109086;1273;22587;-79
2023/10/07 10:43:28;;;;;;;6.10;3.50;;;;;;;18.44;63.85;96660.90;108842;1272;22510;-79
2023/10/07 10:46:11;;;;;;;5.40;3.30;;;;;;;18.52;63.81;96657.06;107272;1269;2052317;-81
2023/10/07 10:48:43;;;;;;;7.20;3.40;;;;;;;18.59;63.38;96653.39;109097;1268;22525;-79
2023/10/07 10:51:16;;;;;;;5.90;3.30;;;;;;;18.58;63.36;96650.19;109121;1272;22634;-80
2023/10/07 10:53:50;;;;;;;8.30;4.30;;;;;;;18.65;63.56;96658.39;109066;1268;22656;-79
2023/10/07 10:56:26;;;;;;;7.80;3.90;;;;;;;18.81;63.46;96650.63;108769;1273;51021;-80
2023/10/07 10:58:59;;;;;;;7.10;3.50;;;;;;;18.89;63.19;96651.14;108828;1272;23840;-79
2023/10/07 11:01:48;;;;;;;8.00;4.10;;;;;;;18.90;62.89;96643.50;109077;1249;22520;-79
2023/10/07 11:04:23;;;;;;;8.00;3.70;;;;;;;18.79;62.28;96635.95;108836;1272;22527;-78
2023/10/07 11:07:04;;;;;;;9.20;4.00;;;;;;;18.78;62.49;96642.23;108724;1267;67524;-80
2023/10/07 11:09:38;;;;;;;8.20;3.90;;;;;;;18.83;62.09;96634.16;109059;1265;22596;-78
2023/10/07 11:12:12;;;;;;;6.30;4.00;;;;;;;18.82;62.05;96634.13;108849;1273;22528;-79
2023/10/07 11:14:47;;;;;;;7.50;4.60;;;;;;;18.78;61.99;96626.42;108764;1266;22638;-79
2023/10/07 11:17:19;;;;;;;7.10;4.00;;;;;;;18.80;62.25;96630.79;108761;1270;52200;-80
2023/10/07 11:19:58;;;;;;;6.80;3.90;;;;;;;18.84;61.98;96626.68;108776;1270;22529;-80
2023/10/07 11:22:31;;;;;;;6.10;3.60;;;;;;;18.86;62.00;96624.01;108794;1268;22469;-79
2023/10/07 11:25:14;;;;;;;8.80;4.30;;;;;;;19.04;62.46;96622.69;108796;1265;23048;-79
2023/10/07 11:27:48;;;;;;;6.60;3.70;;;;;;;19.19;61.77;96615.92;107244;1273;2050964;-79
2023/10/07 11:30:29;;;;;;;6.60;3.80;;;;;;;19.20;61.41;96614.17;108823;1270;23825;-80
2023/10/07 11:33:17;;;;;;;6.50;4.00;;;;;;;19.21;61.19;96618.58;109054;1273;23790;-80
2023/10/07 11:36:00;;;;;;;10.10;4.00;;;;;;;19.23;60.84;96606.14;108993;1270;70758;-80
2023/10/07 11:38:38;;;;;;;7.00;3.90;;;;;;;19.22;61.01;96608.87;109045;1267;25890;-79
2023/10/07 11:41:11;;;;;;;7.10;3.80;;;;;;;19.34;61.04;96611.58;108810;1273;22526;-80
2023/10/07 11:43:48;;;;;;;6.90;3.90;;;;;;;19.54;61.09;96609.92;108801;1265;25079;-79
2023/10/07 11:46:27;;;;;;;7.50;4.20;;;;;;;19.69;60.77;96597.81;108829;1273;68131;-79
2023/10/07 11:48:59;;;;;;;5.80;3.50;;;;;;;19.78;60.35;96600.09;108833;1271;22554;-79
2023/10/07 11:51:34;;;;;;;6.80;3.60;;;;;;;19.70;59.62;96605.38;108849;1267;24029;-79
2023/10/07 11:54:12;;;;;;;6.20;3.60;;;;;;;19.44;59.46;96597.06;108857;1273;22554;-79
2023/10/07 11:56:59;;;;;;;6.10;3.60;;;;;;;19.25;59.63;96603.75;108758;1265;45746;-78
2023/10/07 11:59:31;;;;;;;9.90;4.40;;;;;;;19.28;59.89;96603.84;108743;1272;22526;-78
2023/10/07 12:02:09;;;;;;;6.50;3.70;;;;;;;19.41;60.37;96605.95;108784;1269;22592;-80
2023/10/07 12:04:46;;;;;;;5.90;3.20;;;;;;;19.50;60.15;96599.87;108767;1267;22514;-78
2023/10/07 12:07:18;;;;;;;6.00;3.50;;;;;;;19.56;59.99;96595.17;108777;1272;28319;-78
2023/10/07 12:09:51;;;;;;;6.90;4.20;;;;;;;19.68;60.04;96595.95;108728;1273;23863;-78
2023/10/07 12:12:27;;;;;;;7.50;4.20;;;;;;;19.80;60.12;96595.61;108784;1273;22511;-78
2023/10/07 12:14:59;;;;;;;6.30;3.60;;;;;;;19.89;59.77;96592.98;108800;1272;22536;-78
2023/10/07 12:17:31;;;;;;;7.60;4.20;;;;;;;19.94;59.77;96585.03;108670;1273;54139;-78
2023/10/07 12:20:03;;;;;;;8.10;4.70;;;;;;;20.03;59.56;96584.46;108823;1270;22555;-78
2023/10/07 12:22:36;;;;;;;6.70;3.90;;;;;;;20.04;59.43;96582.98;108763;1268;25707;-78
2023/10/07 12:25:13;;;;;;;8.00;4.10;;;;;;;20.19;59.56;96578.92;108760;1265;22566;-78
2023/10/07 12:27:44;;;;;;;7.10;4.00;;;;;;;20.28;59.65;96577.48;108742;1273;50446;-79
2023/10/07 12:30:21;;;;;;;6.90;3.80;;;;;;;20.35;59.67;96580.33;108823;1268;24209;-79
2023/10/07 12:32:59;;;;;;;8.80;4.30;;;;;;;20.43;58.86;96590.52;108793;1272;23937;-80
2023/10/07 12:35:43;;;;;;;7.30;4.30;;;;;;;20.41;57.76;96599.13;108993;1272;48043;-81
2023/10/07 12:38:19;;;;;;;7.80;4.30;;;;;;;20.34;57.71;96595.77;109091;1265;22500;-80
2023/10/07 12:43:55;;;;;;;8.30;4.30;;;;;;;20.24;56.79;96591.07;108973;1273;24161;-81
2023/10/07 12:46:33;;;;;;;8.60;4.30;;;;;;;20.15;56.48;96591.83;108989;1273;44132;-80
2023/10/07 12:49:19;;;;;;;7.20;4.20;;;;;;;20.19;56.33;96576.54;109026;1268;22642;-81
2023/10/07 12:51:51;;;;;;;7.30;4.20;;;;;;;20.18;54.67;96569.98;108979;1268;24984;-81